sensor_id;sensor_type;location;lat;lon;timestamp;P1;durP1;ratioP1;P2;durP2;ratioP2
7215;SDS011;3649;48.798;9.798;2023-12-04T00:00:11;18.60;;;12.93;;
7215;SDS011;3649;48.798;9.798;2023-12-04T00:02:38;21.03;;;14.20;;
7215;SDS011;3649;48.798;9.798;2023-12-04T00:05:05;21.23;;;13.90;;
7215;SDS011;3649;48.798;9.798;2023-12-04T00:07:33;18.83;;;12.97;;
7215;SDS011;3649;48.798;9.798;2023-12-04T00:09:59;19.47;;;13.17;;
7215;SDS011;3649;48.798;9.798;2023-12-04T00:12:26;19.17;;;13.60;;
7215;SDS011;3649;48.798;9.798;2023-12-04T00:14:53;17.53;;;13.23;;
7215;SDS011;3649;48.798;9.798;2023-12-04T00:17:20;15.47;;;11.57;;
7215;SDS011;3649;48.798;9.798;2023-12-04T00:19:48;17.40;;;11.97;;
7215;SDS011;3649;48.798;9.798;2023-12-04T00:22:15;14.43;;;11.17;;
7215;SDS011;3649;48.798;9.798;2023-12-04T00:24:42;15.00;;;11.03;;
7215;SDS011;3649;48.798;9.798;2023-12-04T00:27:09;15.33;;;11.07;;
7215;SDS011;3649;48.798;9.798;2023-12-04T00:29:36;12.60;;;10.70;;
7215;SDS011;3649;48.798;9.798;2023-12-04T00:32:03;15.33;;;10.73;;
7215;SDS011;3649;48.798;9.798;2023-12-04T00:34:30;14.00;;;10.43;;
7215;SDS011;3649;48.798;9.798;2023-12-04T00:36:58;12.20;;;9.87;;
7215;SDS011;3649;48.798;9.798;2023-12-04T00:39:24;14.10;;;10.57;;
7215;SDS011;3649;48.798;9.798;2023-12-04T00:41:51;13.00;;;9.60;;
7215;SDS011;3649;48.798;9.798;2023-12-04T00:44:18;13.53;;;10.27;;
7215;SDS011;3649;48.798;9.798;2023-12-04T00:46:45;11.13;;;9.27;;
7215;SDS011;3649;48.798;9.798;2023-12-04T00:49:11;12.90;;;9.87;;
7215;SDS011;3649;48.798;9.798;2023-12-04T00:51:38;14.13;;;10.47;;
7215;SDS011;3649;48.798;9.798;2023-12-04T00:54:06;13.53;;;9.87;;
7215;SDS011;3649;48.798;9.798;2023-12-04T00:56:33;12.03;;;10.17;;
7215;SDS011;3649;48.798;9.798;2023-12-04T00:58:59;12.90;;;10.23;;
7215;SDS011;3649;48.798;9.798;2023-12-04T01:01:26;14.43;;;9.87;;
7215;SDS011;3649;48.798;9.798;2023-12-04T01:03:53;13.17;;;9.53;;
7215;SDS011;3649;48.798;9.798;2023-12-04T01:06:21;12.47;;;9.03;;
7215;SDS011;3649;48.798;9.798;2023-12-04T01:08:52;12.13;;;9.07;;
7215;SDS011;3649;48.798;9.798;2023-12-04T01:11:20;11.37;;;9.30;;
7215;SDS011;3649;48.798;9.798;2023-12-04T01:13:48;11.30;;;9.43;;
7215;SDS011;3649;48.798;9.798;2023-12-04T01:16:15;13.60;;;9.50;;
7215;SDS011;3649;48.798;9.798;2023-12-04T01:18:43;12.53;;;9.30;;
7215;SDS011;3649;48.798;9.798;2023-12-04T01:21:10;11.03;;;9.37;;
7215;SDS011;3649;48.798;9.798;2023-12-04T01:23:37;12.37;;;9.70;;
7215;SDS011;3649;48.798;9.798;2023-12-04T01:26:04;10.40;;;8.43;;
7215;SDS011;3649;48.798;9.798;2023-12-04T01:28:31;11.73;;;8.60;;
7215;SDS011;3649;48.798;9.798;2023-12-04T01:30:58;12.93;;;9.10;;
7215;SDS011;3649;48.798;9.798;2023-12-04T01:33:25;12.77;;;9.03;;
7215;SDS011;3649;48.798;9.798;2023-12-04T01:35:52;10.87;;;8.37;;
7215;SDS011;3649;48.798;9.798;2023-12-04T01:38:19;10.73;;;7.77;;
7215;SDS011;3649;48.798;9.798;2023-12-04T01:40:46;12.40;;;9.23;;
7215;SDS011;3649;48.798;9.798;2023-12-04T01:43:13;9.90;;;8.60;;
7215;SDS011;3649;48.798;9.798;2023-12-04T01:45:41;11.57;;;9.30;;
7215;SDS011;3649;48.798;9.798;2023-12-04T01:48:08;11.90;;;9.73;;
7215;SDS011;3649;48.798;9.798;2023-12-04T01:50:35;13.20;;;10.13;;
7215;SDS011;3649;48.798;9.798;2023-12-04T01:53:03;10.27;;;9.17;;
7215;SDS011;3649;48.798;9.798;2023-12-04T01:55:30;12.93;;;9.00;;
7215;SDS011;3649;48.798;9.798;2023-12-04T01:58:00;13.10;;;9.50;;
7215;SDS011;3649;48.798;9.798;2023-12-04T02:00:30;12.33;;;9.67;;
7215;SDS011;3649;48.798;9.798;2023-12-04T02:02:57;13.70;;;10.67;;
7215;SDS011;3649;48.798;9.798;2023-12-04T02:05:26;12.73;;;9.53;;
7215;SDS011;3649;48.798;9.798;2023-12-04T02:07:56;12.93;;;9.37;;
7215;SDS011;3649;48.798;9.798;2023-12-04T02:10:23;14.40;;;9.73;;
7215;SDS011;3649;48.798;9.798;2023-12-04T02:12:50;14.17;;;9.83;;
7215;SDS011;3649;48.798;9.798;2023-12-04T02:15:17;11.47;;;9.27;;
7215;SDS011;3649;48.798;9.798;2023-12-04T02:17:44;13.50;;;9.83;;
7215;SDS011;3649;48.798;9.798;2023-12-04T02:20:15;13.23;;;9.83;;
7215;SDS011;3649;48.798;9.798;2023-12-04T02:22:43;10.70;;;8.03;;
7215;SDS011;3649;48.798;9.798;2023-12-04T02:28:07;10.07;;;7.70;;
7215;SDS011;3649;48.798;9.798;2023-12-04T02:30:38;10.00;;;7.63;;
7215;SDS011;3649;48.798;9.798;2023-12-04T02:33:07;11.23;;;7.73;;
7215;SDS011;3649;48.798;9.798;2023-12-04T02:35:37;11.03;;;7.80;;
7215;SDS011;3649;48.798;9.798;2023-12-04T02:38:06;9.83;;;7.57;;
7215;SDS011;3649;48.798;9.798;2023-12-04T02:40:34;10.90;;;8.87;;
7215;SDS011;3649;48.798;9.798;2023-12-04T02:43:01;10.43;;;8.50;;
7215;SDS011;3649;48.798;9.798;2023-12-04T02:45:28;11.27;;;8.13;;
7215;SDS011;3649;48.798;9.798;2023-12-04T02:47:55;12.17;;;9.10;;
7215;SDS011;3649;48.798;9.798;2023-12-04T02:50:22;12.50;;;9.13;;
7215;SDS011;3649;48.798;9.798;2023-12-04T02:52:50;12.07;;;8.73;;
7215;SDS011;3649;48.798;9.798;2023-12-04T02:55:17;11.50;;;7.90;;
7215;SDS011;3649;48.798;9.798;2023-12-04T02:57:44;11.80;;;8.30;;
7215;SDS011;3649;48.798;9.798;2023-12-04T03:00:11;9.03;;;7.87;;
7215;SDS011;3649;48.798;9.798;2023-12-04T03:02:38;8.50;;;7.57;;
7215;SDS011;3649;48.798;9.798;2023-12-04T03:05:05;11.83;;;7.60;;
7215;SDS011;3649;48.798;9.798;2023-12-04T03:07:32;8.30;;;7.07;;
7215;SDS011;3649;48.798;9.798;2023-12-04T03:09:59;9.37;;;7.40;;
7215;SDS011;3649;48.798;9.798;2023-12-04T03:12:26;9.50;;;7.83;;
7215;SDS011;3649;48.798;9.798;2023-12-04T03:14:53;9.00;;;7.10;;
7215;SDS011;3649;48.798;9.798;2023-12-04T03:17:20;9.20;;;7.13;;
7215;SDS011;3649;48.798;9.798;2023-12-04T03:19:47;8.53;;;7.30;;
7215;SDS011;3649;48.798;9.798;2023-12-04T03:22:15;10.00;;;7.53;;
7215;SDS011;3649;48.798;9.798;2023-12-04T03:24:42;8.40;;;7.60;;
7215;SDS011;3649;48.798;9.798;2023-12-04T03:27:09;8.30;;;6.80;;
7215;SDS011;3649;48.798;9.798;2023-12-04T03:29:36;7.47;;;6.77;;
7215;SDS011;3649;48.798;9.798;2023-12-04T03:32:03;9.67;;;7.60;;
7215;SDS011;3649;48.798;9.798;2023-12-04T03:34:30;11.13;;;8.20;;
7215;SDS011;3649;48.798;9.798;2023-12-04T03:36:57;10.93;;;8.53;;
7215;SDS011;3649;48.798;9.798;2023-12-04T03:39:24;10.00;;;8.17;;
7215;SDS011;3649;48.798;9.798;2023-12-04T03:41:51;11.03;;;7.83;;
7215;SDS011;3649;48.798;9.798;2023-12-04T03:44:18;7.93;;;6.97;;
7215;SDS011;3649;48.798;9.798;2023-12-04T03:46:45;7.77;;;6.70;;
7215;SDS011;3649;48.798;9.798;2023-12-04T03:49:12;8.83;;;7.47;;
7215;SDS011;3649;48.798;9.798;2023-12-04T03:51:39;8.23;;;6.30;;
7215;SDS011;3649;48.798;9.798;2023-12-04T03:54:06;7.17;;;6.47;;
7215;SDS011;3649;48.798;9.798;2023-12-04T03:56:32;8.67;;;6.50;;
7215;SDS011;3649;48.798;9.798;2023-12-04T03:58:59;8.50;;;7.23;;
7215;SDS011;3649;48.798;9.798;2023-12-04T04:01:26;8.43;;;7.30;;
7215;SDS011;3649;48.798;9.798;2023-12-04T04:03:53;8.10;;;6.73;;
7215;SDS011;3649;48.798;9.798;2023-12-04T04:06:20;7.83;;;6.73;;
7215;SDS011;3649;48.798;9.798;2023-12-04T04:08:47;8.30;;;6.80;;
7215;SDS011;3649;48.798;9.798;2023-12-04T04:11:14;7.93;;;6.80;;
7215;SDS011;3649;48.798;9.798;2023-12-04T04:13:40;10.47;;;6.23;;
7215;SDS011;3649;48.798;9.798;2023-12-04T04:16:07;9.63;;;6.80;;
7215;SDS011;3649;48.798;9.798;2023-12-04T04:18:38;8.67;;;6.60;;
7215;SDS011;3649;48.798;9.798;2023-12-04T04:21:05;7.97;;;7.17;;
7215;SDS011;3649;48.798;9.798;2023-12-04T04:23:32;9.57;;;7.03;;
7215;SDS011;3649;48.798;9.798;2023-12-04T04:25:59;7.17;;;6.40;;
7215;SDS011;3649;48.798;9.798;2023-12-04T04:28:26;7.63;;;6.63;;
7215;SDS011;3649;48.798;9.798;2023-12-04T04:30:53;8.53;;;7.50;;
7215;SDS011;3649;48.798;9.798;2023-12-04T04:33:20;8.53;;;6.60;;
7215;SDS011;3649;48.798;9.798;2023-12-04T04:35:47;9.77;;;8.17;;
7215;SDS011;3649;48.798;9.798;2023-12-04T04:38:14;8.33;;;7.50;;
7215;SDS011;3649;48.798;9.798;2023-12-04T04:40:41;9.03;;;8.10;;
7215;SDS011;3649;48.798;9.798;2023-12-04T04:43:10;8.70;;;6.50;;
7215;SDS011;3649;48.798;9.798;2023-12-04T04:45:37;11.43;;;7.53;;
7215;SDS011;3649;48.798;9.798;2023-12-04T04:48:04;8.03;;;7.23;;
7215;SDS011;3649;48.798;9.798;2023-12-04T04:50:31;10.13;;;7.47;;
7215;SDS011;3649;48.798;9.798;2023-12-04T04:52:58;9.97;;;8.00;;
7215;SDS011;3649;48.798;9.798;2023-12-04T04:55:26;8.73;;;7.83;;
7215;SDS011;3649;48.798;9.798;2023-12-04T04:58:12;9.30;;;7.07;;
7215;SDS011;3649;48.798;9.798;2023-12-04T05:00:39;11.87;;;7.13;;
7215;SDS011;3649;48.798;9.798;2023-12-04T05:03:06;8.73;;;6.97;;
7215;SDS011;3649;48.798;9.798;2023-12-04T05:05:33;8.23;;;6.73;;
7215;SDS011;3649;48.798;9.798;2023-12-04T05:08:00;9.33;;;7.10;;
7215;SDS011;3649;48.798;9.798;2023-12-04T05:10:27;8.50;;;6.90;;
7215;SDS011;3649;48.798;9.798;2023-12-04T05:12:54;8.53;;;7.47;;
7215;SDS011;3649;48.798;9.798;2023-12-04T05:15:20;10.83;;;7.43;;
7215;SDS011;3649;48.798;9.798;2023-12-04T05:17:47;11.33;;;7.67;;
7215;SDS011;3649;48.798;9.798;2023-12-04T05:20:14;9.33;;;7.17;;
7215;SDS011;3649;48.798;9.798;2023-12-04T05:22:41;8.40;;;7.20;;
7215;SDS011;3649;48.798;9.798;2023-12-04T05:25:08;10.90;;;7.17;;
7215;SDS011;3649;48.798;9.798;2023-12-04T05:27:35;8.20;;;7.30;;
7215;SDS011;3649;48.798;9.798;2023-12-04T05:30:02;9.37;;;7.07;;
7215;SDS011;3649;48.798;9.798;2023-12-04T05:32:29;9.23;;;6.77;;
7215;SDS011;3649;48.798;9.798;2023-12-04T05:34:56;8.30;;;6.60;;
7215;SDS011;3649;48.798;9.798;2023-12-04T05:37:22;7.50;;;6.67;;
7215;SDS011;3649;48.798;9.798;2023-12-04T05:39:49;8.40;;;6.70;;
7215;SDS011;3649;48.798;9.798;2023-12-04T05:42:16;9.67;;;6.93;;
7215;SDS011;3649;48.798;9.798;2023-12-04T05:44:43;7.40;;;6.63;;
7215;SDS011;3649;48.798;9.798;2023-12-04T05:47:10;11.27;;;7.50;;
7215;SDS011;3649;48.798;9.798;2023-12-04T05:49:37;9.03;;;6.87;;
7215;SDS011;3649;48.798;9.798;2023-12-04T05:52:04;11.40;;;7.73;;
7215;SDS011;3649;48.798;9.798;2023-12-04T05:54:31;10.20;;;7.90;;
7215;SDS011;3649;48.798;9.798;2023-12-04T05:56:58;10.97;;;7.47;;
7215;SDS011;3649;48.798;9.798;2023-12-04T05:59:25;11.33;;;8.13;;
7215;SDS011;3649;48.798;9.798;2023-12-04T06:01:51;11.20;;;7.13;;
7215;SDS011;3649;48.798;9.798;2023-12-04T06:04:18;24.97;;;11.47;;
7215;SDS011;3649;48.798;9.798;2023-12-04T06:06:45;35.23;;;14.43;;
7215;SDS011;3649;48.798;9.798;2023-12-04T06:09:12;12.83;;;8.30;;
7215;SDS011;3649;48.798;9.798;2023-12-04T06:11:41;13.40;;;8.97;;
7215;SDS011;3649;48.798;9.798;2023-12-04T06:14:12;11.13;;;7.90;;
7215;SDS011;3649;48.798;9.798;2023-12-04T06:16:39;11.00;;;8.03;;
7215;SDS011;3649;48.798;9.798;2023-12-04T06:19:06;8.33;;;7.43;;
7215;SDS011;3649;48.798;9.798;2023-12-04T06:21:33;9.83;;;8.00;;
7215;SDS011;3649;48.798;9.798;2023-12-04T06:24:00;9.93;;;8.03;;
7215;SDS011;3649;48.798;9.798;2023-12-04T06:26:31;12.03;;;10.23;;
7215;SDS011;3649;48.798;9.798;2023-12-04T06:28:59;14.60;;;10.13;;
7215;SDS011;3649;48.798;9.798;2023-12-04T06:31:26;20.03;;;10.90;;
7215;SDS011;3649;48.798;9.798;2023-12-04T06:33:53;10.27;;;7.90;;
7215;SDS011;3649;48.798;9.798;2023-12-04T06:36:21;12.90;;;8.60;;
7215;SDS011;3649;48.798;9.798;2023-12-04T06:38:48;10.87;;;7.70;;
7215;SDS011;3649;48.798;9.798;2023-12-04T06:41:19;10.20;;;8.13;;
7215;SDS011;3649;48.798;9.798;2023-12-04T06:43:47;9.87;;;7.63;;
7215;SDS011;3649;48.798;9.798;2023-12-04T06:46:18;10.47;;;8.40;;
7215;SDS011;3649;48.798;9.798;2023-12-04T06:48:50;11.97;;;8.67;;
7215;SDS011;3649;48.798;9.798;2023-12-04T06:51:20;11.17;;;8.63;;
7215;SDS011;3649;48.798;9.798;2023-12-04T06:53:46;11.30;;;8.30;;
7215;SDS011;3649;48.798;9.798;2023-12-04T06:56:14;10.97;;;7.90;;
7215;SDS011;3649;48.798;9.798;2023-12-04T06:58:45;12.50;;;9.47;;
7215;SDS011;3649;48.798;9.798;2023-12-04T07:01:12;26.63;;;17.03;;
7215;SDS011;3649;48.798;9.798;2023-12-04T07:03:39;10.63;;;8.77;;
7215;SDS011;3649;48.798;9.798;2023-12-04T07:06:06;10.97;;;8.03;;
7215;SDS011;3649;48.798;9.798;2023-12-04T07:08:36;10.83;;;7.83;;
7215;SDS011;3649;48.798;9.798;2023-12-04T07:11:03;9.40;;;8.23;;
7215;SDS011;3649;48.798;9.798;2023-12-04T07:13:31;11.13;;;8.33;;
7215;SDS011;3649;48.798;9.798;2023-12-04T07:15:58;10.10;;;7.63;;
7215;SDS011;3649;48.798;9.798;2023-12-04T07:18:26;10.23;;;7.63;;
7215;SDS011;3649;48.798;9.798;2023-12-04T07:20:53;9.67;;;8.33;;
7215;SDS011;3649;48.798;9.798;2023-12-04T07:23:20;13.27;;;9.10;;
7215;SDS011;3649;48.798;9.798;2023-12-04T07:25:49;10.23;;;8.13;;
7215;SDS011;3649;48.798;9.798;2023-12-04T07:28:18;11.40;;;8.93;;
7215;SDS011;3649;48.798;9.798;2023-12-04T07:30:46;11.60;;;8.90;;
7215;SDS011;3649;48.798;9.798;2023-12-04T07:33:13;12.43;;;9.47;;
7215;SDS011;3649;48.798;9.798;2023-12-04T07:35:40;10.10;;;7.83;;
7215;SDS011;3649;48.798;9.798;2023-12-04T07:38:07;10.97;;;8.27;;
7215;SDS011;3649;48.798;9.798;2023-12-04T07:40:34;11.50;;;8.43;;
7215;SDS011;3649;48.798;9.798;2023-12-04T07:43:01;14.20;;;10.07;;
7215;SDS011;3649;48.798;9.798;2023-12-04T07:45:28;11.50;;;8.53;;
7215;SDS011;3649;48.798;9.798;2023-12-04T07:47:56;12.67;;;8.50;;
7215;SDS011;3649;48.798;9.798;2023-12-04T07:50:22;12.03;;;8.67;;
7215;SDS011;3649;48.798;9.798;2023-12-04T07:52:50;11.57;;;7.70;;
7215;SDS011;3649;48.798;9.798;2023-12-04T07:55:17;10.60;;;8.43;;
7215;SDS011;3649;48.798;9.798;2023-12-04T07:57:44;23.97;;;10.93;;
7215;SDS011;3649;48.798;9.798;2023-12-04T08:00:11;37.87;;;15.30;;
7215;SDS011;3649;48.798;9.798;2023-12-04T08:02:38;18.97;;;10.43;;
7215;SDS011;3649;48.798;9.798;2023-12-04T08:05:06;12.83;;;9.07;;
7215;SDS011;3649;48.798;9.798;2023-12-04T08:07:35;10.80;;;8.53;;
7215;SDS011;3649;48.798;9.798;2023-12-04T08:10:02;14.27;;;10.20;;
7215;SDS011;3649;48.798;9.798;2023-12-04T08:12:30;10.10;;;8.03;;
7215;SDS011;3649;48.798;9.798;2023-12-04T08:14:57;9.83;;;8.30;;
7215;SDS011;3649;48.798;9.798;2023-12-04T08:17:24;9.17;;;7.70;;
7215;SDS011;3649;48.798;9.798;2023-12-04T08:19:51;11.10;;;8.60;;
7215;SDS011;3649;48.798;9.798;2023-12-04T08:22:19;12.43;;;9.23;;
7215;SDS011;3649;48.798;9.798;2023-12-04T08:24:46;19.43;;;9.27;;
7215;SDS011;3649;48.798;9.798;2023-12-04T08:27:12;12.57;;;8.57;;
7215;SDS011;3649;48.798;9.798;2023-12-04T08:29:39;12.37;;;9.07;;
7215;SDS011;3649;48.798;9.798;2023-12-04T08:32:07;11.17;;;8.43;;
7215;SDS011;3649;48.798;9.798;2023-12-04T08:34:34;10.37;;;8.00;;
7215;SDS011;3649;48.798;9.798;2023-12-04T08:37:02;12.43;;;8.90;;
7215;SDS011;3649;48.798;9.798;2023-12-04T08:39:29;9.57;;;7.87;;
7215;SDS011;3649;48.798;9.798;2023-12-04T08:41:56;11.97;;;8.90;;
7215;SDS011;3649;48.798;9.798;2023-12-04T08:44:30;16.70;;;11.07;;
7215;SDS011;3649;48.798;9.798;2023-12-04T08:46:58;12.83;;;10.20;;
7215;SDS011;3649;48.798;9.798;2023-12-04T08:49:27;11.77;;;9.63;;
7215;SDS011;3649;48.798;9.798;2023-12-04T08:52:08;15.20;;;9.67;;
7215;SDS011;3649;48.798;9.798;2023-12-04T08:54:38;13.00;;;10.27;;
7215;SDS011;3649;48.798;9.798;2023-12-04T08:57:06;13.67;;;10.63;;
7215;SDS011;3649;48.798;9.798;2023-12-04T08:59:34;13.67;;;9.77;;
7215;SDS011;3649;48.798;9.798;2023-12-04T09:02:02;13.83;;;9.90;;
7215;SDS011;3649;48.798;9.798;2023-12-04T09:04:32;13.30;;;9.83;;
7215;SDS011;3649;48.798;9.798;2023-12-04T09:07:00;12.23;;;9.33;;
7215;SDS011;3649;48.798;9.798;2023-12-04T09:09:47;11.07;;;9.07;;
7215;SDS011;3649;48.798;9.798;2023-12-04T09:12:14;13.60;;;9.97;;
7215;SDS011;3649;48.798;9.798;2023-12-04T09:14:41;17.03;;;10.13;;
7215;SDS011;3649;48.798;9.798;2023-12-04T09:17:08;8.80;;;7.90;;
7215;SDS011;3649;48.798;9.798;2023-12-04T09:19:35;11.67;;;8.83;;
7215;SDS011;3649;48.798;9.798;2023-12-04T09:22:02;11.27;;;9.10;;
7215;SDS011;3649;48.798;9.798;2023-12-04T09:24:43;10.50;;;8.97;;
7215;SDS011;3649;48.798;9.798;2023-12-04T09:27:11;15.27;;;9.40;;
7215;SDS011;3649;48.798;9.798;2023-12-04T09:29:38;12.80;;;9.10;;
7215;SDS011;3649;48.798;9.798;2023-12-04T09:32:05;14.00;;;10.03;;
7215;SDS011;3649;48.798;9.798;2023-12-04T09:34:32;15.03;;;9.43;;
7215;SDS011;3649;48.798;9.798;2023-12-04T09:36:59;11.63;;;8.80;;
7215;SDS011;3649;48.798;9.798;2023-12-04T09:39:36;10.37;;;8.90;;
7215;SDS011;3649;48.798;9.798;2023-12-04T09:42:03;11.40;;;8.80;;
7215;SDS011;3649;48.798;9.798;2023-12-04T09:44:30;11.13;;;8.67;;
7215;SDS011;3649;48.798;9.798;2023-12-04T09:46:59;13.97;;;9.70;;
7215;SDS011;3649;48.798;9.798;2023-12-04T09:49:29;10.47;;;9.10;;
7215;SDS011;3649;48.798;9.798;2023-12-04T09:51:57;13.53;;;9.10;;
7215;SDS011;3649;48.798;9.798;2023-12-04T09:54:26;12.93;;;9.93;;
7215;SDS011;3649;48.798;9.798;2023-12-04T09:56:53;12.90;;;10.13;;
7215;SDS011;3649;48.798;9.798;2023-12-04T09:59:20;14.77;;;10.93;;
7215;SDS011;3649;48.798;9.798;2023-12-04T10:01:52;12.23;;;8.63;;
7215;SDS011;3649;48.798;9.798;2023-12-04T10:04:19;13.53;;;9.07;;
7215;SDS011;3649;48.798;9.798;2023-12-04T10:06:49;11.50;;;8.73;;
7215;SDS011;3649;48.798;9.798;2023-12-04T10:09:17;10.67;;;8.23;;
7215;SDS011;3649;48.798;9.798;2023-12-04T10:11:44;11.00;;;8.70;;
7215;SDS011;3649;48.798;9.798;2023-12-04T10:14:15;11.43;;;8.90;;
7215;SDS011;3649;48.798;9.798;2023-12-04T10:16:43;15.00;;;11.27;;
7215;SDS011;3649;48.798;9.798;2023-12-04T10:19:18;14.93;;;10.43;;
7215;SDS011;3649;48.798;9.798;2023-12-04T10:21:54;12.97;;;9.77;;
7215;SDS011;3649;48.798;9.798;2023-12-04T10:24:29;14.17;;;9.83;;
7215;SDS011;3649;48.798;9.798;2023-12-04T10:26:56;11.40;;;9.23;;
7215;SDS011;3649;48.798;9.798;2023-12-04T10:29:26;11.80;;;9.40;;
7215;SDS011;3649;48.798;9.798;2023-12-04T10:31:53;11.27;;;9.40;;
7215;SDS011;3649;48.798;9.798;2023-12-04T10:34:22;15.67;;;10.20;;
7215;SDS011;3649;48.798;9.798;2023-12-04T10:36:52;12.83;;;10.33;;
7215;SDS011;3649;48.798;9.798;2023-12-04T10:39:20;12.57;;;9.23;;
7215;SDS011;3649;48.798;9.798;2023-12-04T10:41:50;15.03;;;11.20;;
7215;SDS011;3649;48.798;9.798;2023-12-04T10:44:26;11.53;;;9.37;;
7215;SDS011;3649;48.798;9.798;2023-12-04T10:46:53;15.20;;;9.53;;
7215;SDS011;3649;48.798;9.798;2023-12-04T10:49:27;12.77;;;9.00;;
7215;SDS011;3649;48.798;9.798;2023-12-04T10:51:58;14.83;;;10.40;;
7215;SDS011;3649;48.798;9.798;2023-12-04T10:54:26;14.53;;;10.87;;
7215;SDS011;3649;48.798;9.798;2023-12-04T10:56:56;10.50;;;9.37;;
7215;SDS011;3649;48.798;9.798;2023-12-04T10:59:32;18.43;;;11.03;;
7215;SDS011;3649;48.798;9.798;2023-12-04T11:02:03;13.20;;;10.13;;
7215;SDS011;3649;48.798;9.798;2023-12-04T11:04:35;13.47;;;10.40;;
7215;SDS011;3649;48.798;9.798;2023-12-04T11:07:02;14.73;;;10.50;;
7215;SDS011;3649;48.798;9.798;2023-12-04T11:09:34;16.77;;;10.70;;
7215;SDS011;3649;48.798;9.798;2023-12-04T11:12:02;14.67;;;11.00;;
7215;SDS011;3649;48.798;9.798;2023-12-04T11:14:37;13.00;;;10.73;;
7215;SDS011;3649;48.798;9.798;2023-12-04T11:17:10;15.33;;;10.97;;
7215;SDS011;3649;48.798;9.798;2023-12-04T11:19:55;14.67;;;10.70;;
7215;SDS011;3649;48.798;9.798;2023-12-04T11:22:28;13.87;;;10.97;;
7215;SDS011;3649;48.798;9.798;2023-12-04T11:24:56;13.00;;;10.33;;
7215;SDS011;3649;48.798;9.798;2023-12-04T11:27:23;14.90;;;10.00;;
7215;SDS011;3649;48.798;9.798;2023-12-04T11:29:51;13.20;;;11.33;;
7215;SDS011;3649;48.798;9.798;2023-12-04T11:32:18;13.37;;;10.77;;
7215;SDS011;3649;48.798;9.798;2023-12-04T11:34:55;18.50;;;11.67;;
7215;SDS011;3649;48.798;9.798;2023-12-04T11:37:25;14.97;;;10.53;;
7215;SDS011;3649;48.798;9.798;2023-12-04T11:39:52;16.40;;;10.80;;
7215;SDS011;3649;48.798;9.798;2023-12-04T11:42:21;16.53;;;12.03;;
7215;SDS011;3649;48.798;9.798;2023-12-04T11:44:57;16.00;;;11.70;;
7215;SDS011;3649;48.798;9.798;2023-12-04T11:47:25;15.13;;;10.93;;
7215;SDS011;3649;48.798;9.798;2023-12-04T11:49:54;20.23;;;13.17;;
7215;SDS011;3649;48.798;9.798;2023-12-04T11:52:31;19.23;;;12.90;;
7215;SDS011;3649;48.798;9.798;2023-12-04T11:55:01;16.20;;;11.00;;
7215;SDS011;3649;48.798;9.798;2023-12-04T11:57:35;16.87;;;12.03;;
7215;SDS011;3649;48.798;9.798;2023-12-04T12:00:14;18.13;;;10.73;;
7215;SDS011;3649;48.798;9.798;2023-12-04T12:02:47;16.87;;;10.77;;
7215;SDS011;3649;48.798;9.798;2023-12-04T12:05:36;18.33;;;11.40;;
7215;SDS011;3649;48.798;9.798;2023-12-04T12:08:08;12.17;;;10.40;;
7215;SDS011;3649;48.798;9.798;2023-12-04T12:10:35;14.50;;;11.33;;
7215;SDS011;3649;48.798;9.798;2023-12-04T12:13:02;15.73;;;12.30;;
7215;SDS011;3649;48.798;9.798;2023-12-04T12:15:30;15.57;;;11.03;;
7215;SDS011;3649;48.798;9.798;2023-12-04T12:17:59;16.37;;;11.63;;
7215;SDS011;3649;48.798;9.798;2023-12-04T12:20:26;17.97;;;10.60;;
7215;SDS011;3649;48.798;9.798;2023-12-04T12:22:53;15.63;;;11.13;;
7215;SDS011;3649;48.798;9.798;2023-12-04T12:25:20;12.87;;;10.53;;
7215;SDS011;3649;48.798;9.798;2023-12-04T12:27:48;14.17;;;9.93;;
7215;SDS011;3649;48.798;9.798;2023-12-04T12:30:17;13.13;;;10.77;;
7215;SDS011;3649;48.798;9.798;2023-12-04T12:32:44;16.20;;;11.90;;
7215;SDS011;3649;48.798;9.798;2023-12-04T12:35:11;17.07;;;11.63;;
7215;SDS011;3649;48.798;9.798;2023-12-04T12:37:38;14.13;;;11.10;;
7215;SDS011;3649;48.798;9.798;2023-12-04T12:40:05;14.47;;;11.57;;
7215;SDS011;3649;48.798;9.798;2023-12-04T12:42:36;18.03;;;12.50;;
7215;SDS011;3649;48.798;9.798;2023-12-04T12:45:08;17.37;;;12.53;;
7215;SDS011;3649;48.798;9.798;2023-12-04T12:47:42;15.63;;;12.43;;
7215;SDS011;3649;48.798;9.798;2023-12-04T12:50:10;14.50;;;11.23;;
7215;SDS011;3649;48.798;9.798;2023-12-04T12:52:38;17.93;;;12.70;;
7215;SDS011;3649;48.798;9.798;2023-12-04T12:55:05;14.30;;;11.40;;
7215;SDS011;3649;48.798;9.798;2023-12-04T12:57:32;17.13;;;12.47;;
7215;SDS011;3649;48.798;9.798;2023-12-04T13:00:00;20.67;;;11.77;;
7215;SDS011;3649;48.798;9.798;2023-12-04T13:02:27;22.87;;;11.67;;
7215;SDS011;3649;48.798;9.798;2023-12-04T13:04:54;14.70;;;11.53;;
7215;SDS011;3649;48.798;9.798;2023-12-04T13:07:22;14.80;;;11.63;;
7215;SDS011;3649;48.798;9.798;2023-12-04T13:09:49;18.03;;;12.70;;
7215;SDS011;3649;48.798;9.798;2023-12-04T13:12:16;16.00;;;11.93;;
7215;SDS011;3649;48.798;9.798;2023-12-04T13:14:43;15.23;;;10.57;;
7215;SDS011;3649;48.798;9.798;2023-12-04T13:17:10;15.37;;;11.23;;
7215;SDS011;3649;48.798;9.798;2023-12-04T13:19:37;13.90;;;10.43;;
7215;SDS011;3649;48.798;9.798;2023-12-04T13:22:04;17.80;;;12.13;;
7215;SDS011;3649;48.798;9.798;2023-12-04T13:24:31;14.70;;;11.00;;
7215;SDS011;3649;48.798;9.798;2023-12-04T13:26:58;17.70;;;12.23;;
7215;SDS011;3649;48.798;9.798;2023-12-04T13:29:25;15.73;;;10.97;;
7215;SDS011;3649;48.798;9.798;2023-12-04T13:31:52;21.67;;;12.77;;
7215;SDS011;3649;48.798;9.798;2023-12-04T13:34:19;17.43;;;12.17;;
7215;SDS011;3649;48.798;9.798;2023-12-04T13:36:46;15.70;;;10.87;;
7215;SDS011;3649;48.798;9.798;2023-12-04T13:39:13;16.30;;;11.57;;
7215;SDS011;3649;48.798;9.798;2023-12-04T13:41:46;17.73;;;12.37;;
7215;SDS011;3649;48.798;9.798;2023-12-04T13:44:32;21.43;;;12.30;;
7215;SDS011;3649;48.798;9.798;2023-12-04T13:47:00;16.07;;;11.47;;
7215;SDS011;3649;48.798;9.798;2023-12-04T13:49:27;17.80;;;13.30;;
7215;SDS011;3649;48.798;9.798;2023-12-04T13:51:54;15.60;;;11.90;;
7215;SDS011;3649;48.798;9.798;2023-12-04T13:54:21;18.67;;;12.80;;
7215;SDS011;3649;48.798;9.798;2023-12-04T13:56:59;19.23;;;13.13;;
7215;SDS011;3649;48.798;9.798;2023-12-04T13:59:27;18.93;;;14.00;;
7215;SDS011;3649;48.798;9.798;2023-12-04T14:01:55;15.40;;;12.33;;
7215;SDS011;3649;48.798;9.798;2023-12-04T14:04:26;19.30;;;14.17;;
7215;SDS011;3649;48.798;9.798;2023-12-04T14:06:54;18.47;;;14.43;;
7215;SDS011;3649;48.798;9.798;2023-12-04T14:09:26;22.40;;;15.73;;
7215;SDS011;3649;48.798;9.798;2023-12-04T14:11:53;20.97;;;14.23;;
7215;SDS011;3649;48.798;9.798;2023-12-04T14:14:20;20.20;;;13.40;;
7215;SDS011;3649;48.798;9.798;2023-12-04T14:16:47;23.90;;;15.13;;
7215;SDS011;3649;48.798;9.798;2023-12-04T14:19:15;21.30;;;15.47;;
7215;SDS011;3649;48.798;9.798;2023-12-04T14:21:44;22.93;;;13.73;;
7215;SDS011;3649;48.798;9.798;2023-12-04T14:24:11;20.40;;;14.13;;
7215;SDS011;3649;48.798;9.798;2023-12-04T14:26:38;17.87;;;13.37;;
7215;SDS011;3649;48.798;9.798;2023-12-04T14:29:04;17.90;;;13.20;;
7215;SDS011;3649;48.798;9.798;2023-12-04T14:31:34;18.87;;;14.10;;
7215;SDS011;3649;48.798;9.798;2023-12-04T14:34:01;16.53;;;13.07;;
7215;SDS011;3649;48.798;9.798;2023-12-04T14:36:29;18.00;;;13.47;;
7215;SDS011;3649;48.798;9.798;2023-12-04T14:38:59;25.63;;;14.97;;
7215;SDS011;3649;48.798;9.798;2023-12-04T14:41:27;21.90;;;15.00;;
7215;SDS011;3649;48.798;9.798;2023-12-04T14:43:54;20.33;;;14.93;;
7215;SDS011;3649;48.798;9.798;2023-12-04T14:46:22;17.33;;;14.00;;
7215;SDS011;3649;48.798;9.798;2023-12-04T14:48:49;19.57;;;14.13;;
7215;SDS011;3649;48.798;9.798;2023-12-04T14:51:16;20.83;;;15.77;;
7215;SDS011;3649;48.798;9.798;2023-12-04T14:53:43;18.53;;;12.60;;
7215;SDS011;3649;48.798;9.798;2023-12-04T14:56:17;21.63;;;14.17;;
7215;SDS011;3649;48.798;9.798;2023-12-04T14:59:03;20.57;;;14.63;;
7215;SDS011;3649;48.798;9.798;2023-12-04T15:01:56;22.03;;;13.90;;
7215;SDS011;3649;48.798;9.798;2023-12-04T15:04:23;17.30;;;12.53;;
7215;SDS011;3649;48.798;9.798;2023-12-04T15:07:26;22.23;;;15.40;;